Naples, Italy

1:29 AM CEST on October 23, 2014 (GMT +0200)
Naples | Change Station
CLOSE
Current Station
Personal Weather Station
Location: Naples, Campania
Elevation: 108 ft
Nearby Weather Stations
Active Advisory: Wind

Elev 108 ft 40.84 °N, 14.25 °E | Updated 13 minutes ago

Scattered Clouds
Scattered Clouds
54.4 °F
Feels Like 54.4 °F
N
6.0
Wind Variable Wind from NE
Gusts 10.0 mph

Today
High -- | Low -- °F
--% Chance of Precip.
Yesterday
High -- | Low -- °F
Precip. -- in
7:22 AM 6:10 PM
Waning Crescent, 1% visible
Pressure 29.80 in
Visibility 6.2 miles
Clouds Scattered Clouds 7000 ft
Dew Point 35 °F
Humidity 48%
Rainfall 0.00 in
Snow Depth Not available.
UV 0 out of 12
Pollen Not available.
Air Quality Not available.
Flu Activity Not available.
METAR LIRN 222320Z 02008KT 350V050 9999 SCT070 12/04 Q1009

More Conditions Fewer Conditions

Pressure 29.80 in
Visibility 6.2 miles
Clouds Scattered Clouds 7000 ft
Dew Point 35 °F
Humidity 48%
Rainfall 0.00 in
Snow Depth Not available.
UV 0 out of 12
Pollen Not available.
Air Quality Not available.
Flu Activity Not available.
METAR LIRN 222320Z 02008KT 350V050 9999 SCT070 12/04 Q1009

More Conditions Fewer Conditions

10-Day Weather Forecast

Almanac

Astronomy

Oct. 23, 2014 Rise Set
Actual Time 7:22 AM CEST 6:10 PM CEST
Civil Twilight 6:54 AM CEST 6:38 PM CEST
Nautical Twilight 6:22 AM CEST 7:10 PM CEST
Astronomical Twilight 5:50 AM CEST 7:42 PM CEST
Moon 6:45 AM CEST (10/23) 6:02 PM CEST (10/23)
Length of Visible Light 11h 44m
Length of Day
10h 48m
Tomorrow will be 2m 32s shorter.
Waning Crescent, 1% of the Moon is Illuminated
Oct 22
Waning Crescent
Oct 23
New
Oct 30
First Quarter
Nov 6
Full
Nov 14
Last Quarter

Yesterday's Extremes

Country Highs Country Lows

Community

WunderPhotos

Upload Photos

1,764,078 photos uploaded!

WunderBlogs® & News

Nearby

Snow Depth

Not available.

Earthquake Activity

City Distance Mag. Time & Date
No recent earthquake activity has been reported nearby.
Minimum magnitude displayed is 2.5.

Coastal Water Temperatures

Place Temperature
No Stations Reporting

Nearby Weather Stations